Time;durP1;ratioP1;P1;durP2;ratioP2;P2;SDS_P1;SDS_P2;PMS_P1;PMS_P2;Temp;Humidity;BMP_temperature;BMP_pressure;BME280_temperature;BME280_humidity;BME280_pressure;Samples;Min_cycle;Max_cycle;Signal;HPM_P1;HPM_P2
2022/09/19 00:01:33;;;;;;;;;;;;;;;;;;5036988;28;6975;-60
2022/09/19 00:04:04;;;;;;;;;;;;;;;;;;5036847;28;6924;-60
2022/09/19 00:06:32;;;;;;;;;;;;;;;;;;5037644;28;7021;-60
2022/09/19 00:08:58;;;;;;;;;;;;;;;;;;5036786;28;7030;-60
2022/09/19 00:11:25;;;;;;;;;;;;;;;;;;5036684;28;7140;-60
2022/09/19 00:13:52;;;;;;;;;;;;;;;;;;5036475;28;7017;-60
2022/09/19 00:16:23;;;;;;;;;;;;;;;;;;5036369;28;7197;-60
2022/09/19 00:18:50;;;;;;;;;;;;;;;;;;5036613;28;7031;-60
2022/09/19 00:21:20;;;;;;;;;;;;;;;;;;5036244;28;6942;-60
2022/09/19 00:26:30;;;;;;;;;;;;;;;;;;5036138;28;6806;-60
2022/09/19 00:28:55;;;;;;;;;;;;;;;;;;5036384;28;7151;-60
2022/09/19 00:31:21;;;;;;;;;;;;;;;;;;5036450;28;7140;-60
2022/09/19 00:33:48;;;;;;;;;;;;;;;;;;5036070;28;6932;-60
2022/09/19 00:36:15;;;;;;;;;;;;;;;;;;5036310;28;7125;-60
2022/09/19 00:38:40;;;;;;;;;;;;;;;;;;5035811;28;7041;-60
2022/09/19 00:41:07;;;;;;;;;;;;;;;;;;5035938;28;7094;-60
2022/09/19 00:43:43;;;;;;;;;;;;;;;;;;5036081;28;6941;-60
2022/09/19 00:46:09;;;;;;;;;;;;;;;;;;5035757;28;7211;-60
2022/09/19 00:48:41;;;;;;;;;;;;;;;;;;5035867;28;7297;-60
2022/09/19 00:51:11;;;;;;;;;;;;;;;;;;5036011;28;7360;-60
2022/09/19 00:53:37;;;;;;;;;;;;;;;;;;5035931;28;7021;-60
2022/09/19 00:56:04;;;;;;;;;;;;;;;;;;5036655;28;6966;-60
2022/09/19 00:58:33;;;;;;;;;;;;;;;;;;5035033;28;7139;-60
2022/09/19 01:00:59;;;;;;;;;;;;;;;;;;5035482;28;7934;-60
2022/09/19 01:03:27;;;;;;;;;;;;;;;;;;5035894;28;6964;-60
2022/09/19 01:06:11;;;;;;;;;;;;;;;;;;5035283;28;7519;-60
2022/09/19 01:08:46;;;;;;;;;;;;;;;;;;5035560;28;7384;-60
2022/09/19 01:11:19;;;;;;;;;;;;;;;;;;5035734;28;7096;-60
2022/09/19 01:13:59;;;;;;;;;;;;;;;;;;5035455;28;7088;-60
2022/09/19 01:16:33;;;;;;;;;;;;;;;;;;5035127;28;8717;-60
2022/09/19 01:19:05;;;;;;;;;;;;;;;;;;5035278;28;8185;-60
2022/09/19 01:21:49;;;;;;;;;;;;;;;;;;5035436;28;7140;-60
2022/09/19 01:24:37;;;;;;;;;;;;;;;;;;5017362;28;8518;-60
2022/09/19 01:27:05;;;;;;;;;;;;;;;;;;5035236;28;7352;-60
2022/09/19 01:29:42;;;;;;;;;;;;;;;;;;5035076;28;7168;-60
2022/09/19 01:32:13;;;;;;;;;;;;;;;;;;5035231;28;6813;-60
2022/09/19 01:34:44;;;;;;;;;;;;;;;;;;5035228;28;7197;-60
2022/09/19 01:37:27;;;;;;;;;;;;;;;;;;5035188;28;7039;-60
2022/09/19 01:39:56;;;;;;;;;;;;;;;;;;5035039;28;7107;-60
2022/09/19 01:42:22;;;;;;;;;;;;;;;;;;5035089;28;8174;-60
2022/09/19 01:44:48;;;;;;;;;;;;;;;;;;5034904;28;7165;-60
2022/09/19 01:47:21;;;;;;;;;;;;;;;;;;5035034;28;7334;-60
2022/09/19 01:49:51;;;;;;;;;;;;;;;;;;5035230;28;7108;-60
2022/09/19 01:52:36;;;;;;;;;;;;;;;;;;5034824;28;7494;-60
2022/09/19 01:55:24;;;;;;;;;;;;;;;;;;5035463;28;7250;-60
2022/09/19 01:57:50;;;;;;;;;;;;;;;;;;5034601;28;7194;-60
2022/09/19 02:00:21;;;;;;;;;;;;;;;;;;5034545;28;8028;-60
2022/09/19 02:02:57;;;;;;;;;;;;;;;;;;5034891;28;7258;-60
2022/09/19 02:05:28;;;;;;;;;;;;;;;;;;5034625;28;6807;-60
2022/09/19 02:08:07;;;;;;;;;;;;;;;;;;5034712;28;7243;-60
2022/09/19 02:10:42;;;;;;;;;;;;;;;;;;5034362;28;7047;-60
2022/09/19 02:13:09;;;;;;;;;;;;;;;;;;5034720;28;7033;-60
2022/09/19 02:15:36;;;;;;;;;;;;;;;;;;5034677;28;7200;-60
2022/09/19 02:18:12;;;;;;;;;;;;;;;;;;5034982;28;7193;-60
2022/09/19 02:20:40;;;;;;;;;;;;;;;;;;5034348;28;7239;-60
2022/09/19 02:23:23;;;;;;;;;;;;;;;;;;5034608;28;7258;-60
2022/09/19 02:25:51;;;;;;;;;;;;;;;;;;5034172;28;7189;-60
2022/09/19 02:28:24;;;;;;;;;;;;;;;;;;5034194;28;7015;-60
2022/09/19 02:30:50;;;;;;;;;;;;;;;;;;5034451;28;6985;-60
2022/09/19 02:33:16;;;;;;;;;;;;;;;;;;5034548;28;7025;-60
2022/09/19 02:35:45;;;;;;;;;;;;;;;;;;5034390;28;7488;-60
2022/09/19 02:38:22;;;;;;;;;;;;;;;;;;5034162;28;7393;-60
2022/09/19 02:40:54;;;;;;;;;;;;;;;;;;5034178;28;7131;-60
2022/09/19 02:43:36;;;;;;;;;;;;;;;;;;5034327;28;7050;-60
2022/09/19 02:46:18;;;;;;;;;;;;;;;;;;5035465;28;7155;-60
2022/09/19 02:48:46;;;;;;;;;;;;;;;;;;5034218;28;7405;-60
2022/09/19 02:51:28;;;;;;;;;;;;;;;;;;5034371;28;6940;-60
2022/09/19 02:53:58;;;;;;;;;;;;;;;;;;5034130;28;7213;-60
2022/09/19 02:56:30;;;;;;;;;;;;;;;;;;5033987;28;7182;-60
2022/09/19 02:59:10;;;;;;;;;;;;;;;;;;5034128;28;7426;-60
2022/09/19 03:01:40;;;;;;;;;;;;;;;;;;5033816;28;7413;-60
2022/09/19 03:04:12;;;;;;;;;;;;;;;;;;5034188;28;7166;-60
2022/09/19 03:06:45;;;;;;;;;;;;;;;;;;5033860;28;7231;-60
2022/09/19 03:09:14;;;;;;;;;;;;;;;;;;5033933;28;7514;-60
2022/09/19 03:11:45;;;;;;;;;;;;;;;;;;5034212;28;7110;-60
2022/09/19 03:14:12;;;;;;;;;;;;;;;;;;5033832;28;7394;-60
2022/09/19 03:16:43;;;;;;;;;;;;;;;;;;5034712;28;6960;-60
2022/09/19 03:19:09;;;;;;;;;;;;;;;;;;5033991;28;7039;-60
2022/09/19 03:21:37;;;;;;;;;;;;;;;;;;5034308;28;7250;-60
2022/09/19 03:24:04;;;;;;;;;;;;;;;;;;5037627;28;6988;-61
2022/09/19 03:26:32;;;;;;;;;;;;;;;;;;5037646;28;7185;-60
2022/09/19 03:28:58;;;;;;;;;;;;;;;;;;5037523;28;8196;-60
2022/09/19 03:31:25;;;;;;;;;;;;;;;;;;5037561;28;7046;-60
2022/09/19 03:33:51;;;;;;;;;;;;;;;;;;5037422;28;7231;-60
2022/09/19 03:36:18;;;;;;;;;;;;;;;;;;5037193;28;7180;-60
2022/09/19 03:38:46;;;;;;;;;;;;;;;;;;5037325;28;7324;-60
2022/09/19 03:41:13;;;;;;;;;;;;;;;;;;5037293;28;6953;-60
2022/09/19 03:43:42;;;;;;;;;;;;;;;;;;5036998;28;7159;-60
2022/09/19 03:46:12;;;;;;;;;;;;;;;;;;5037132;28;7222;-60
2022/09/19 03:48:40;;;;;;;;;;;;;;;;;;5037121;28;7018;-60
2022/09/19 03:51:06;;;;;;;;;;;;;;;;;;5037164;28;7417;-60
2022/09/19 03:53:32;;;;;;;;;;;;;;;;;;5037879;28;7034;-60
2022/09/19 03:55:58;;;;;;;;;;;;;;;;;;5037113;28;7208;-60
2022/09/19 03:58:23;;;;;;;;;;;;;;;;;;5037638;28;7155;-60
2022/09/19 04:00:49;;;;;;;;;;;;;;;;;;5036629;28;7223;-60
2022/09/19 04:03:18;;;;;;;;;;;;;;;;;;5036717;28;6941;-60
2022/09/19 04:05:44;;;;;;;;;;;;;;;;;;5036840;28;7206;-60
2022/09/19 04:08:10;;;;;;;;;;;;;;;;;;5036529;28;8046;-60
2022/09/19 04:10:36;;;;;;;;;;;;;;;;;;5054061;23;8418;-85
2022/09/19 04:13:01;;;;;;;;;;;;;;;;;;5000075;28;8708;-85
2022/09/19 04:15:27;;;;;;;;;;;;;;;;;;4996821;28;6810;-87
2022/09/19 04:17:52;;;;;;;;;;;;;;;;;;4996826;28;8280;-85
2022/09/19 04:20:18;;;;;;;;;;;;;;;;;;4996705;28;7165;-86
2022/09/19 04:22:43;;;;;;;;;;;;;;;;;;4997274;28;8276;-86
2022/09/19 04:25:10;;;;;;;;;;;;;;;;;;4997206;28;8392;-86
2022/09/19 04:27:39;;;;;;;;;;;;;;;;;;4997486;28;8273;-86
2022/09/19 04:30:06;;;;;;;;;;;;;;;;;;4996637;28;7165;-86
2022/09/19 04:32:31;;;;;;;;;;;;;;;;;;4996228;28;8016;-86
2022/09/19 04:34:59;;;;;;;;;;;;;;;;;;4999386;28;6958;-86
2022/09/19 04:37:25;;;;;;;;;;;;;;;;;;4998456;28;6898;-87
2022/09/19 04:39:50;;;;;;;;;;;;;;;;;;4996902;28;7198;-87
2022/09/19 04:42:16;;;;;;;;;;;;;;;;;;4996672;28;7003;-85
2022/09/19 04:44:42;;;;;;;;;;;;;;;;;;5001333;28;8570;-85
2022/09/19 04:47:10;;;;;;;;;;;;;;;;;;5003264;28;7033;-83
2022/09/19 04:49:39;;;;;;;;;;;;;;;;;;5001369;28;8385;-82
2022/09/19 04:52:12;;;;;;;;;;;;;;;;;;4999312;28;7143;-85
2022/09/19 04:54:37;;;;;;;;;;;;;;;;;;4998851;28;7051;-86
2022/09/19 04:57:05;;;;;;;;;;;;;;;;;;4998120;28;7200;-85
2022/09/19 04:59:31;;;;;;;;;;;;;;;;;;4997843;28;7075;-87
2022/09/19 05:01:58;;;;;;;;;;;;;;;;;;4996656;28;8378;-84
2022/09/19 05:04:24;;;;;;;;;;;;;;;;;;4996772;28;7017;-86
2022/09/19 05:06:51;;;;;;;;;;;;;;;;;;4995847;28;7323;-88
2022/09/19 05:09:17;;;;;;;;;;;;;;;;;;4998266;28;7052;-84
2022/09/19 05:11:46;;;;;;;;;;;;;;;;;;4996768;28;7167;-85
2022/09/19 05:14:13;;;;;;;;;;;;;;;;;;4988341;28;7062;-85
2022/09/19 05:16:39;;;;;;;;;;;;;;;;;;4985402;28;7038;-86
2022/09/19 05:19:05;;;;;;;;;;;;;;;;;;4984521;28;7059;-86
2022/09/19 05:21:31;;;;;;;;;;;;;;;;;;4985897;28;7009;-85
2022/09/19 05:23:56;;;;;;;;;;;;;;;;;;4984033;28;7259;-86
2022/09/19 05:26:22;;;;;;;;;;;;;;;;;;4987778;28;8454;-86
2022/09/19 05:28:49;;;;;;;;;;;;;;;;;;4983149;28;6833;-79
2022/09/19 05:31:18;;;;;;;;;;;;;;;;;;4986981;28;7250;-81
2022/09/19 05:33:44;;;;;;;;;;;;;;;;;;4987328;28;8495;-79
2022/09/19 05:36:09;;;;;;;;;;;;;;;;;;4986408;28;8250;-80
2022/09/19 05:38:35;;;;;;;;;;;;;;;;;;4987167;28;7344;-83
2022/09/19 05:41:02;;;;;;;;;;;;;;;;;;4985325;28;7026;-83
2022/09/19 05:43:28;;;;;;;;;;;;;;;;;;4983460;28;8399;-85
2022/09/19 05:45:55;;;;;;;;;;;;;;;;;;4985416;28;6967;-78
2022/09/19 05:48:21;;;;;;;;;;;;;;;;;;4985909;28;7021;-80
2022/09/19 05:50:48;;;;;;;;;;;;;;;;;;4984506;28;7031;-81
2022/09/19 05:55:58;;;;;;;;;;;;;;;;;;4980112;28;6809;-84
2022/09/19 05:58:24;;;;;;;;;;;;;;;;;;4979128;28;7232;-80
2022/09/19 06:00:50;;;;;;;;;;;;;;;;;;4984243;28;7321;-79
2022/09/19 06:03:16;;;;;;;;;;;;;;;;;;4986529;28;8561;-78
2022/09/19 06:05:43;;;;;;;;;;;;;;;;;;4982853;28;8424;-83
2022/09/19 06:08:09;;;;;;;;;;;;;;;;;;4978928;28;8422;-87
2022/09/19 06:10:38;;;;;;;;;;;;;;;;;;4978478;28;8301;-85
2022/09/19 06:13:04;;;;;;;;;;;;;;;;;;4980192;28;7050;-81
2022/09/19 06:15:30;;;;;;;;;;;;;;;;;;4979436;28;7146;-75
2022/09/19 06:17:56;;;;;;;;;;;;;;;;;;4982203;28;7449;-78
2022/09/19 06:20:22;;;;;;;;;;;;;;;;;;4982068;28;6999;-81
2022/09/19 06:22:49;;;;;;;;;;;;;;;;;;4982825;28;7048;-81
2022/09/19 06:25:15;;;;;;;;;;;;;;;;;;4984523;28;8560;-79
2022/09/19 06:27:46;;;;;;;;;;;;;;;;;;4983923;28;7217;-80
2022/09/19 06:30:12;;;;;;;;;;;;;;;;;;4977061;28;8470;-84
2022/09/19 06:32:39;;;;;;;;;;;;;;;;;;4977098;28;7083;-82
2022/09/19 06:35:04;;;;;;;;;;;;;;;;;;4976580;28;8534;-83
2022/09/19 06:37:30;;;;;;;;;;;;;;;;;;4976577;28;7140;-81
2022/09/19 06:39:56;;;;;;;;;;;;;;;;;;4978908;28;7010;-84
2022/09/19 06:42:22;;;;;;;;;;;;;;;;;;4980600;28;8303;-85
2022/09/19 06:44:49;;;;;;;;;;;;;;;;;;4981116;28;7176;-81
2022/09/19 06:47:15;;;;;;;;;;;;;;;;;;4981601;28;8345;-83
2022/09/19 06:49:42;;;;;;;;;;;;;;;;;;4981307;28;7053;-85
2022/09/19 06:52:07;;;;;;;;;;;;;;;;;;4980336;28;8677;-82
2022/09/19 06:54:33;;;;;;;;;;;;;;;;;;4984075;28;7633;-79
2022/09/19 06:56:59;;;;;;;;;;;;;;;;;;4988188;28;7123;-79
2022/09/19 06:59:25;;;;;;;;;;;;;;;;;;4990836;28;8648;-78
2022/09/19 07:01:50;;;;;;;;;;;;;;;;;;4991048;28;8631;-78
2022/09/19 07:04:16;;;;;;;;;;;;;;;;;;4990580;28;7020;-78
2022/09/19 07:06:42;;;;;;;;;;;;;;;;;;4990190;28;7163;-78
2022/09/19 07:09:07;;;;;;;;;;;;;;;;;;4990408;28;7162;-78
2022/09/19 07:11:35;;;;;;;;;;;;;;;;;;4990197;28;7019;-79
2022/09/19 07:14:01;;;;;;;;;;;;;;;;;;4991603;28;7070;-78
2022/09/19 07:16:27;;;;;;;;;;;;;;;;;;4990416;28;7415;-80
2022/09/19 07:18:52;;;;;;;;;;;;;;;;;;4989572;28;8368;-79
2022/09/19 07:21:18;;;;;;;;;;;;;;;;;;4990260;28;7193;-78
2022/09/19 07:23:43;;;;;;;;;;;;;;;;;;4990139;28;7176;-78
2022/09/19 07:26:09;;;;;;;;;;;;;;;;;;4989889;28;7174;-78
2022/09/19 07:28:35;;;;;;;;;;;;;;;;;;4990012;28;8391;-78
2022/09/19 07:31:00;;;;;;;;;;;;;;;;;;4989697;28;8429;-78
2022/09/19 07:33:28;;;;;;;;;;;;;;;;;;4989560;28;8631;-78
2022/09/19 07:35:55;;;;;;;;;;;;;;;;;;4989959;28;7190;-78
2022/09/19 07:38:22;;;;;;;;;;;;;;;;;;4989145;28;8397;-78
2022/09/19 07:40:48;;;;;;;;;;;;;;;;;;4990111;28;7248;-78
2022/09/19 07:43:16;;;;;;;;;;;;;;;;;;4989397;28;7161;-78
2022/09/19 07:45:44;;;;;;;;;;;;;;;;;;4989231;28;7019;-78
2022/09/19 07:48:10;;;;;;;;;;;;;;;;;;4989956;28;7325;-78
2022/09/19 07:50:36;;;;;;;;;;;;;;;;;;4989211;28;8756;-78
2022/09/19 07:53:24;;;;;;;;;;;;;;;;;;4989624;28;8386;-78
2022/09/19 07:55:53;;;;;;;;;;;;;;;;;;4989585;28;7172;-78
2022/09/19 07:58:20;;;;;;;;;;;;;;;;;;4984643;28;8764;-82
2022/09/19 08:00:46;;;;;;;;;;;;;;;;;;4982214;28;7176;-86
2022/09/19 08:03:13;;;;;;;;;;;;;;;;;;4979646;28;7144;-86
2022/09/19 08:05:41;;;;;;;;;;;;;;;;;;4980708;28;8519;-82
2022/09/19 08:08:10;;;;;;;;;;;;;;;;;;4978881;28;8389;-85
2022/09/19 08:10:35;;;;;;;;;;;;;;;;;;4977619;28;7441;-86
2022/09/19 08:13:03;;;;;;;;;;;;;;;;;;4979111;28;8433;-86
2022/09/19 08:15:29;;;;;;;;;;;;;;;;;;4979336;28;7068;-82
2022/09/19 08:17:58;;;;;;;;;;;;;;;;;;4980140;28;8376;-87
2022/09/19 08:20:36;;;;;;;;;;;;;;;;;;4980543;28;8346;-81
2022/09/19 08:23:03;;;;;;;;;;;;;;;;;;4981818;28;7057;-83
2022/09/19 08:25:32;;;;;;;;;;;;;;;;;;4980711;28;8317;-85
2022/09/19 08:27:57;;;;;;;;;;;;;;;;;;4979585;28;7006;-87
2022/09/19 08:30:24;;;;;;;;;;;;;;;;;;4979981;28;8569;-84
2022/09/19 08:32:50;;;;;;;;;;;;;;;;;;4981989;28;8487;-79
2022/09/19 08:35:17;;;;;;;;;;;;;;;;;;4986889;28;8638;-80
2022/09/19 08:37:43;;;;;;;;;;;;;;;;;;4986010;28;8798;-78
2022/09/19 08:40:21;;;;;;;;;;;;;;;;;;4985731;28;7218;-81
2022/09/19 08:43:02;;;;;;;;;;;;;;;;;;4986264;28;6833;-79
2022/09/19 08:45:42;;;;;;;;;;;;;;;;;;4985939;28;7383;-82
2022/09/19 08:48:13;;;;;;;;;;;;;;;;;;4984493;28;7162;-80
2022/09/19 08:50:45;;;;;;;;;;;;;;;;;;4980788;28;7120;-85
2022/09/19 08:53:19;;;;;;;;;;;;;;;;;;4980593;28;8498;-84
2022/09/19 08:55:49;;;;;;;;;;;;;;;;;;4980215;28;7157;-86
2022/09/19 08:58:18;;;;;;;;;;;;;;;;;;4980946;28;8324;-82
2022/09/19 09:00:46;;;;;;;;;;;;;;;;;;4980351;28;7096;-83
2022/09/19 09:03:19;;;;;;;;;;;;;;;;;;4979910;28;8703;-85
2022/09/19 09:05:59;;;;;;;;;;;;;;;;;;4978903;28;7005;-86
2022/09/19 09:08:41;;;;;;;;;;;;;;;;;;4976654;28;7049;-86
2022/09/19 09:11:16;;;;;;;;;;;;;;;;;;4977111;28;8918;-86
2022/09/19 09:13:44;;;;;;;;;;;;;;;;;;4980543;28;7026;-83
2022/09/19 09:16:33;;;;;;;;;;;;;;;;;;4980144;28;7218;-86
2022/09/19 09:19:12;;;;;;;;;;;;;;;;;;4981746;28;7030;-85
2022/09/19 09:21:37;;;;;;;;;;;;;;;;;;4976563;28;7242;-84
2022/09/19 09:24:10;;;;;;;;;;;;;;;;;;4976468;28;8903;-87
2022/09/19 09:26:40;;;;;;;;;;;;;;;;;;4975809;28;7048;-86
2022/09/19 09:29:29;;;;;;;;;;;;;;;;;;4985757;28;7047;-79
2022/09/19 09:32:03;;;;;;;;;;;;;;;;;;4987730;28;8418;-79
2022/09/19 09:34:40;;;;;;;;;;;;;;;;;;4987772;28;7062;-79
2022/09/19 09:37:14;;;;;;;;;;;;;;;;;;4988107;28;7196;-79
2022/09/19 09:39:59;;;;;;;;;;;;;;;;;;4983827;28;7056;-78
2022/09/19 09:42:32;;;;;;;;;;;;;;;;;;4987961;28;7175;-78
2022/09/19 09:45:14;;;;;;;;;;;;;;;;;;4987706;28;7060;-78
2022/09/19 09:47:44;;;;;;;;;;;;;;;;;;4987642;28;8891;-78
2022/09/19 09:50:28;;;;;;;;;;;;;;;;;;4988016;28;7075;-79
2022/09/19 09:53:03;;;;;;;;;;;;;;;;;;4988014;28;7285;-79
2022/09/19 09:58:27;;;;;;;;;;;;;;;;;;4988639;28;6775;-79
2022/09/19 10:04:03;;;;;;;;;;;;;;;;;;4988614;28;6810;-79
2022/09/19 10:06:40;;;;;;;;;;;;;;;;;;4987575;28;7219;-79
2022/09/19 10:09:28;;;;;;;;;;;;;;;;;;4987588;28;7054;-78
2022/09/19 10:12:32;;;;;;;;;;;;;;;;;;4987289;28;6998;-78
2022/09/19 10:15:01;;;;;;;;;;;;;;;;;;4913383;29;7152;-78
2022/09/19 10:17:32;;;;;;;;;;;;;;;;;;4913010;29;7038;-78
2022/09/19 10:20:03;;;;;;;;;;;;;;;;;;4913057;29;7186;-78
2022/09/19 10:22:29;;;;;;;;;;;;;;;;;;4912933;29;8605;-78
2022/09/19 10:24:59;;;;;;;;;;;;;;;;;;4913660;29;7201;-79
2022/09/19 10:27:27;;;;;;;;;;;;;;;;;;4913386;29;6998;-79
2022/09/19 10:30:10;;;;;;;;;;;;;;;;;;4913174;29;8665;-79
2022/09/19 10:32:39;;;;;;;;;;;;;;;;;;4916613;29;7165;-79
2022/09/19 10:35:26;;;;;;;;;;;;;;;;;;4916805;29;7173;-78
2022/09/19 10:38:03;;;;;;;;;;;;;;;;;;4916829;29;7005;-78
2022/09/19 10:40:30;;;;;;;;;;;;;;;;;;4916944;29;8415;-78
2022/09/19 10:42:58;;;;;;;;;;;;;;;;;;4916558;29;7040;-78
2022/09/19 10:45:27;;;;;;;;;;;;;;;;;;4938795;28;7031;-78
2022/09/19 10:47:56;;;;;;;;;;;;;;;;;;4990904;28;7224;-78
2022/09/19 10:50:22;;;;;;;;;;;;;;;;;;4990617;28;7221;-78
2022/09/19 10:52:51;;;;;;;;;;;;;;;;;;4990966;28;8427;-78
2022/09/19 10:55:20;;;;;;;;;;;;;;;;;;4990851;28;8472;-78
2022/09/19 10:57:51;;;;;;;;;;;;;;;;;;4990607;28;7049;-78
2022/09/19 11:00:24;;;;;;;;;;;;;;;;;;4990609;28;8632;-78
2022/09/19 11:02:56;;;;;;;;;;;;;;;;;;4990412;28;6821;-78
2022/09/19 11:05:26;;;;;;;;;;;;;;;;;;4990548;28;8436;-78
2022/09/19 11:07:56;;;;;;;;;;;;;;;;;;4990940;28;7440;-79
2022/09/19 11:10:39;;;;;;;;;;;;;;;;;;4990155;28;8811;-78
2022/09/19 11:13:06;;;;;;;;;;;;;;;;;;4990281;28;8435;-78
2022/09/19 11:15:39;;;;;;;;;;;;;;;;;;4990480;28;7052;-79
2022/09/19 11:18:22;;;;;;;;;;;;;;;;;;4990495;28;7060;-79
2022/09/19 11:20:57;;;;;;;;;;;;;;;;;;4990418;28;8302;-80
2022/09/19 11:23:56;;;;;;;;;;;;;;;;;;4990659;28;8478;-79
2022/09/19 11:26:22;;;;;;;;;;;;;;;;;;4990136;28;7479;-79
2022/09/19 11:29:04;;;;;;;;;;;;;;;;;;4990073;28;7069;-78
2022/09/19 11:31:33;;;;;;;;;;;;;;;;;;4990577;28;8382;-78
2022/09/19 11:34:05;;;;;;;;;;;;;;;;;;4990294;28;8255;-79
2022/09/19 11:36:37;;;;;;;;;;;;;;;;;;4989336;28;7045;-77
2022/09/19 11:39:03;;;;;;;;;;;;;;;;;;4988446;28;8374;-79
2022/09/19 11:41:47;;;;;;;;;;;;;;;;;;4984904;28;8376;-80
2022/09/19 11:44:43;;;;;;;;;;;;;;;;;;4988066;28;7030;-80
2022/09/19 11:47:25;;;;;;;;;;;;;;;;;;4990184;28;7060;-81
2022/09/19 11:49:54;;;;;;;;;;;;;;;;;;4989981;28;8436;-82
2022/09/19 11:52:31;;;;;;;;;;;;;;;;;;4987774;28;8374;-82
2022/09/19 11:54:58;;;;;;;;;;;;;;;;;;4987566;28;8392;-82
2022/09/19 11:57:39;;;;;;;;;;;;;;;;;;4988932;28;8340;-81
2022/09/19 12:00:14;;;;;;;;;;;;;;;;;;4988978;28;8465;-81
2022/09/19 12:02:58;;;;;;;;;;;;;;;;;;4989274;28;7321;-82
2022/09/19 12:05:23;;;;;;;;;;;;;;;;;;4987958;28;7399;-84
2022/09/19 12:08:03;;;;;;;;;;;;;;;;;;4987757;28;6995;-83
2022/09/19 12:10:37;;;;;;;;;;;;;;;;;;4987758;28;8575;-82
2022/09/19 12:13:14;;;;;;;;;;;;;;;;;;4987648;28;7056;-84
2022/09/19 12:15:46;;;;;;;;;;;;;;;;;;4987365;28;7237;-82
2022/09/19 12:18:19;;;;;;;;;;;;;;;;;;4988327;28;8628;-83
2022/09/19 12:20:48;;;;;;;;;;;;;;;;;;4987190;28;8488;-85
2022/09/19 12:26:09;;;;;;;;;;;;;;;;;;4989698;28;6807;-82
2022/09/19 12:28:41;;;;;;;;;;;;;;;;;;4988884;28;6922;-82
2022/09/19 12:31:10;;;;;;;;;;;;;;;;;;4977428;28;8406;-87
2022/09/19 12:33:39;;;;;;;;;;;;;;;;;;4976644;28;8854;-87
2022/09/19 12:36:11;;;;;;;;;;;;;;;;;;4976975;28;8082;-88
2022/09/19 12:38:56;;;;;;;;;;;;;;;;;;4976583;28;7333;-87
2022/09/19 12:41:36;;;;;;;;;;;;;;;;;;4977436;28;7635;-87
2022/09/19 12:44:28;;;;;;;;;;;;;;;;;;4976905;28;7190;-85
2022/09/19 12:47:00;;;;;;;;;;;;;;;;;;4977214;28;6932;-87
2022/09/19 12:49:38;;;;;;;;;;;;;;;;;;4976306;28;6843;-89
2022/09/19 12:52:30;;;;;;;;;;;;;;;;;;4976698;28;8264;-86
2022/09/19 12:55:16;;;;;;;;;;;;;;;;;;4956204;28;8411;-87
2022/09/19 12:57:44;;;;;;;;;;;;;;;;;;4976569;28;7603;-87
2022/09/19 13:00:11;;;;;;;;;;;;;;;;;;4976747;28;9473;-87
2022/09/19 13:02:48;;;;;;;;;;;;;;;;;;4976139;28;7197;-88
2022/09/19 13:05:36;;;;;;;;;;;;;;;;;;4976947;28;7182;-87
2022/09/19 13:08:02;;;;;;;;;;;;;;;;;;4976309;28;7247;-87
2022/09/19 13:10:46;;;;;;;;;;;;;;;;;;4975874;28;8710;-87
2022/09/19 13:13:24;;;;;;;;;;;;;;;;;;4976420;28;7031;-86
2022/09/19 13:15:53;;;;;;;;;;;;;;;;;;4975956;28;8401;-86
2022/09/19 13:24:04;;;;;;;;;;;;;;;;;;4977274;28;6801;-87
2022/09/19 13:26:35;;;;;;;;;;;;;;;;;;4975341;28;7049;-87
2022/09/19 13:29:08;;;;;;;;;;;;;;;;;;4976189;28;7170;-85
2022/09/19 13:31:52;;;;;;;;;;;;;;;;;;4976190;28;8425;-87
2022/09/19 13:34:33;;;;;;;;;;;;;;;;;;4976200;28;7440;-86
2022/09/19 13:37:22;;;;;;;;;;;;;;;;;;4975410;28;8438;-85
2022/09/19 13:40:04;;;;;;;;;;;;;;;;;;4975125;28;8399;-88
2022/09/19 13:42:40;;;;;;;;;;;;;;;;;;4975543;28;7252;-88
2022/09/19 13:45:24;;;;;;;;;;;;;;;;;;4975297;28;7163;-87
2022/09/19 13:47:54;;;;;;;;;;;;;;;;;;4975372;28;8785;-86
2022/09/19 13:50:27;;;;;;;;;;;;;;;;;;4975489;28;8387;-85
2022/09/19 13:53:01;;;;;;;;;;;;;;;;;;4975003;28;7442;-86
2022/09/19 13:55:42;;;;;;;;;;;;;;;;;;4975055;28;7227;-87
2022/09/19 13:58:28;;;;;;;;;;;;;;;;;;4975483;28;8887;-87
2022/09/19 14:01:12;;;;;;;;;;;;;;;;;;4976795;28;8977;-86
2022/09/19 14:03:44;;;;;;;;;;;;;;;;;;4974842;28;8409;-87
2022/09/19 14:06:21;;;;;;;;;;;;;;;;;;4975121;28;8280;-86
2022/09/19 14:09:07;;;;;;;;;;;;;;;;;;4975451;28;8378;-87
2022/09/19 14:11:32;;;;;;;;;;;;;;;;;;4945347;28;8407;-86
2022/09/19 14:13:59;;;;;;;;;;;;;;;;;;4955597;28;8253;-86
2022/09/19 14:16:30;;;;;;;;;;;;;;;;;;4955499;28;8749;-85
2022/09/19 14:18:58;;;;;;;;;;;;;;;;;;4955391;28;7125;-87
2022/09/19 14:21:26;;;;;;;;;;;;;;;;;;4955872;28;8379;-86
2022/09/19 14:23:58;;;;;;;;;;;;;;;;;;4955359;28;7051;-87
2022/09/19 14:26:27;;;;;;;;;;;;;;;;;;4971440;28;9115;-87
2022/09/19 14:29:24;;;;;;;;;;;;;;;;;;4955740;28;7140;-86
2022/09/19 14:32:08;;;;;;;;;;;;;;;;;;4946819;28;8507;-86
2022/09/19 14:34:37;;;;;;;;;;;;;;;;;;4955968;28;8441;-86
2022/09/19 14:37:22;;;;;;;;;;;;;;;;;;4955999;28;7261;-86
2022/09/19 14:40:06;;;;;;;;;;;;;;;;;;4954898;28;8669;-86
2022/09/19 14:42:50;;;;;;;;;;;;;;;;;;4955426;28;7185;-86
2022/09/19 14:45:16;;;;;;;;;;;;;;;;;;4954070;28;7031;-87
2022/09/19 14:47:52;;;;;;;;;;;;;;;;;;4955096;28;8737;-75
2022/09/19 14:50:24;;;;;;;;;;;;;;;;;;4971526;28;8882;-86
2022/09/19 14:52:59;;;;;;;;;;;;;;;;;;4971984;28;8567;-88
2022/09/19 14:55:35;;;;;;;;;;;;;;;;;;4955283;29;8419;-87
2022/09/19 14:58:01;;;;;;;;;;;;;;;;;;4956098;29;8501;-88
2022/09/19 15:00:29;;;;;;;;;;;;;;;;;;4955707;28;8424;-87
2022/09/19 15:02:58;;;;;;;;;;;;;;;;;;4955129;28;7169;-87
2022/09/19 15:05:32;;;;;;;;;;;;;;;;;;4955013;28;7042;-87
2022/09/19 15:08:12;;;;;;;;;;;;;;;;;;4955246;28;7033;-87
2022/09/19 15:10:38;;;;;;;;;;;;;;;;;;4958331;28;8498;-87
2022/09/19 15:13:09;;;;;;;;;;;;;;;;;;4973867;28;7032;-86
2022/09/19 15:15:40;;;;;;;;;;;;;;;;;;4973833;28;8963;-87
2022/09/19 15:18:19;;;;;;;;;;;;;;;;;;4975187;28;7362;-88
2022/09/19 15:20:44;;;;;;;;;;;;;;;;;;4977046;28;7071;-87
2022/09/19 15:23:10;;;;;;;;;;;;;;;;;;4976361;28;8646;-88
2022/09/19 15:25:41;;;;;;;;;;;;;;;;;;4976653;28;8419;-89
2022/09/19 15:28:28;;;;;;;;;;;;;;;;;;4979803;28;7032;-85
2022/09/19 15:30:59;;;;;;;;;;;;;;;;;;4986408;28;7043;-80
2022/09/19 15:33:26;;;;;;;;;;;;;;;;;;4988557;28;9211;-84
2022/09/19 15:35:52;;;;;;;;;;;;;;;;;;4990084;28;8412;-82
2022/09/19 15:38:32;;;;;;;;;;;;;;;;;;4989742;28;7027;-82
2022/09/19 15:41:00;;;;;;;;;;;;;;;;;;4989920;28;8482;-81
2022/09/19 15:43:27;;;;;;;;;;;;;;;;;;4989888;28;7031;-81
2022/09/19 15:45:59;;;;;;;;;;;;;;;;;;4989276;28;7140;-82
2022/09/19 15:48:31;;;;;;;;;;;;;;;;;;4989860;28;7179;-81
2022/09/19 15:51:04;;;;;;;;;;;;;;;;;;4989926;28;8477;-81
2022/09/19 15:53:37;;;;;;;;;;;;;;;;;;4989570;28;7225;-82
2022/09/19 15:56:09;;;;;;;;;;;;;;;;;;4989268;28;8779;-81
2022/09/19 15:58:39;;;;;;;;;;;;;;;;;;4989312;28;8313;-81
2022/09/19 16:01:19;;;;;;;;;;;;;;;;;;4988123;28;7159;-82
2022/09/19 16:03:55;;;;;;;;;;;;;;;;;;4987798;28;7230;-84
2022/09/19 16:09:09;;;;;;;;;;;;;;;;;;4990369;28;6793;-83
2022/09/19 16:11:36;;;;;;;;;;;;;;;;;;4988317;28;8391;-83
2022/09/19 16:14:16;;;;;;;;;;;;;;;;;;4988785;28;8427;-85
2022/09/19 16:16:42;;;;;;;;;;;;;;;;;;4988760;28;7041;-83
2022/09/19 16:19:22;;;;;;;;;;;;;;;;;;4988707;28;6997;-82
2022/09/19 16:21:52;;;;;;;;;;;;;;;;;;4989290;28;8726;-82
2022/09/19 16:24:21;;;;;;;;;;;;;;;;;;4987974;28;7016;-83
2022/09/19 16:26:51;;;;;;;;;;;;;;;;;;4988318;28;7097;-82
2022/09/19 16:29:17;;;;;;;;;;;;;;;;;;4988817;28;7033;-81
2022/09/19 16:31:46;;;;;;;;;;;;;;;;;;4988631;28;8497;-83
2022/09/19 16:34:22;;;;;;;;;;;;;;;;;;4988444;28;7168;-83
2022/09/19 16:36:50;;;;;;;;;;;;;;;;;;4987412;28;8331;-84
2022/09/19 16:39:21;;;;;;;;;;;;;;;;;;4987165;28;8332;-84
2022/09/19 16:41:49;;;;;;;;;;;;;;;;;;4986546;28;7023;-81
2022/09/19 16:44:21;;;;;;;;;;;;;;;;;;4986789;28;8820;-81
2022/09/19 16:46:49;;;;;;;;;;;;;;;;;;4987982;28;7118;-81
2022/09/19 16:49:14;;;;;;;;;;;;;;;;;;4988671;28;8380;-82
2022/09/19 16:51:40;;;;;;;;;;;;;;;;;;4987614;28;7139;-83
2022/09/19 16:54:11;;;;;;;;;;;;;;;;;;4988551;28;8378;-83
2022/09/19 16:56:40;;;;;;;;;;;;;;;;;;4988122;28;7046;-83
2022/09/19 16:59:10;;;;;;;;;;;;;;;;;;4988611;28;8668;-83
2022/09/19 17:01:36;;;;;;;;;;;;;;;;;;4988604;28;9234;-83
2022/09/19 17:04:03;;;;;;;;;;;;;;;;;;4988698;28;8657;-83
2022/09/19 17:06:28;;;;;;;;;;;;;;;;;;4988490;28;8630;-83
2022/09/19 17:08:54;;;;;;;;;;;;;;;;;;4987098;28;7157;-85
2022/09/19 17:11:20;;;;;;;;;;;;;;;;;;4985866;28;8276;-85
2022/09/19 17:13:46;;;;;;;;;;;;;;;;;;4984952;28;7124;-82
2022/09/19 17:16:13;;;;;;;;;;;;;;;;;;4988343;28;7358;-83
2022/09/19 17:18:40;;;;;;;;;;;;;;;;;;4986084;28;7165;-83
2022/09/19 17:21:11;;;;;;;;;;;;;;;;;;4987509;28;7056;-83
2022/09/19 17:23:37;;;;;;;;;;;;;;;;;;4987599;28;8825;-85
2022/09/19 17:26:02;;;;;;;;;;;;;;;;;;4987401;28;7086;-84
2022/09/19 17:28:29;;;;;;;;;;;;;;;;;;4987700;28;8363;-85
2022/09/19 17:30:56;;;;;;;;;;;;;;;;;;4987305;28;8398;-85
2022/09/19 17:33:24;;;;;;;;;;;;;;;;;;4987414;28;8329;-84
2022/09/19 17:35:51;;;;;;;;;;;;;;;;;;4987698;28;7151;-83
2022/09/19 17:38:17;;;;;;;;;;;;;;;;;;4987939;28;8411;-84
2022/09/19 17:40:44;;;;;;;;;;;;;;;;;;4987289;28;7109;-83
2022/09/19 17:43:16;;;;;;;;;;;;;;;;;;4987407;28;7128;-83
2022/09/19 17:45:46;;;;;;;;;;;;;;;;;;4986800;28;8389;-84
2022/09/19 17:48:12;;;;;;;;;;;;;;;;;;4987402;28;8505;-83
2022/09/19 17:50:38;;;;;;;;;;;;;;;;;;4986801;28;7045;-83
2022/09/19 17:53:04;;;;;;;;;;;;;;;;;;4986706;28;6884;-84